McIntosh, Florida
Current Conditions -  °F | °C
As of 4:53 PM on Thursday 27 Nov 2014 (Local Time) from KGNV Reporting Station
Clear Clear  
Wind Chill: 58°   Ceiling: Unl
Heat Index: 58°   Visibility: 10mi
Dew Point: 30°   Wind: 10mph
Humidity: 35%   Direction: 300°WNW
Pressure: 30.23"   Gusts: NA
Location:  29.45°N, 82.22°W
Report Text: KGNV 272153Z 30009KT 10SM CLR 14/M01 A3023 RMK AO2 SLP236 T01441011
Loading
Personal Weather Stations






























Interactive Weather Map New forecast layout! Learn more

10-Day Weather Forecast

Advertisements
Track Severe Weather on mobile